sensor_id;sensor_type;location;lat;lon;timestamp;temperature;humidity
30371;DHT22;17164;48.590;11.410;2023-05-07T00:00:37;11.10;99.90
30371;DHT22;17164;48.590;11.410;2023-05-07T00:03:03;11.20;99.90
30371;DHT22;17164;48.590;11.410;2023-05-07T00:05:29;11.20;99.90
30371;DHT22;17164;48.590;11.410;2023-05-07T00:07:55;11.20;99.90
30371;DHT22;17164;48.590;11.410;2023-05-07T00:10:20;11.10;99.90
30371;DHT22;17164;48.590;11.410;2023-05-07T00:12:46;11.10;99.90
30371;DHT22;17164;48.590;11.410;2023-05-07T00:15:12;11.10;99.90
30371;DHT22;17164;48.590;11.410;2023-05-07T00:17:37;11.10;99.90
30371;DHT22;17164;48.590;11.410;2023-05-07T00:20:04;11.10;99.90
30371;DHT22;17164;48.590;11.410;2023-05-07T00:22:30;11.00;99.90
30371;DHT22;17164;48.590;11.410;2023-05-07T00:24:57;11.00;99.90
30371;DHT22;17164;48.590;11.410;2023-05-07T00:27:24;11.00;99.90
30371;DHT22;17164;48.590;11.410;2023-05-07T00:29:49;10.90;99.90
30371;DHT22;17164;48.590;11.410;2023-05-07T00:32:15;10.90;99.90
30371;DHT22;17164;48.590;11.410;2023-05-07T00:34:41;10.90;99.90
30371;DHT22;17164;48.590;11.410;2023-05-07T00:37:06;10.90;99.90
30371;DHT22;17164;48.590;11.410;2023-05-07T00:39:35;10.90;99.90
30371;DHT22;17164;48.590;11.410;2023-05-07T00:42:01;10.90;99.90
30371;DHT22;17164;48.590;11.410;2023-05-07T00:44:28;10.90;99.90
30371;DHT22;17164;48.590;11.410;2023-05-07T00:46:54;10.90;99.90
30371;DHT22;17164;48.590;11.410;2023-05-07T00:49:20;10.90;99.90
30371;DHT22;17164;48.590;11.410;2023-05-07T00:51:46;10.90;99.90
30371;DHT22;17164;48.590;11.410;2023-05-07T00:54:13;10.90;99.90
30371;DHT22;17164;48.590;11.410;2023-05-07T00:56:39;10.90;99.90
30371;DHT22;17164;48.590;11.410;2023-05-07T00:59:06;10.90;99.90
30371;DHT22;17164;48.590;11.410;2023-05-07T01:01:31;10.90;99.90
30371;DHT22;17164;48.590;11.410;2023-05-07T01:03:57;10.90;99.90
30371;DHT22;17164;48.590;11.410;2023-05-07T01:06:24;10.90;99.90
30371;DHT22;17164;48.590;11.410;2023-05-07T01:08:51;10.90;99.90
30371;DHT22;17164;48.590;11.410;2023-05-07T01:11:18;10.90;99.90
30371;DHT22;17164;48.590;11.410;2023-05-07T01:13:46;10.90;99.90
30371;DHT22;17164;48.590;11.410;2023-05-07T01:16:12;10.90;99.90
30371;DHT22;17164;48.590;11.410;2023-05-07T01:18:38;10.90;99.90
30371;DHT22;17164;48.590;11.410;2023-05-07T01:21:04;10.90;99.90
30371;DHT22;17164;48.590;11.410;2023-05-07T01:23:30;10.90;99.90
30371;DHT22;17164;48.590;11.410;2023-05-07T01:25:56;10.90;99.90
30371;DHT22;17164;48.590;11.410;2023-05-07T01:28:22;10.90;99.90
30371;DHT22;17164;48.590;11.410;2023-05-07T01:30:51;10.90;99.90
30371;DHT22;17164;48.590;11.410;2023-05-07T01:33:20;10.90;99.90
30371;DHT22;17164;48.590;11.410;2023-05-07T01:35:49;10.90;99.90
30371;DHT22;17164;48.590;11.410;2023-05-07T01:38:16;10.90;99.90
30371;DHT22;17164;48.590;11.410;2023-05-07T01:40:43;10.80;99.90
30371;DHT22;17164;48.590;11.410;2023-05-07T01:43:09;10.90;99.90
30371;DHT22;17164;48.590;11.410;2023-05-07T01:45:36;10.80;99.90
30371;DHT22;17164;48.590;11.410;2023-05-07T01:48:02;10.90;99.90
30371;DHT22;17164;48.590;11.410;2023-05-07T01:50:29;10.80;99.90
30371;DHT22;17164;48.590;11.410;2023-05-07T01:52:55;10.80;99.90
30371;DHT22;17164;48.590;11.410;2023-05-07T01:55:21;10.80;99.90
30371;DHT22;17164;48.590;11.410;2023-05-07T01:57:47;10.80;99.90
30371;DHT22;17164;48.590;11.410;2023-05-07T02:00:13;10.80;99.90
30371;DHT22;17164;48.590;11.410;2023-05-07T02:02:38;10.80;99.90
30371;DHT22;17164;48.590;11.410;2023-05-07T02:05:05;10.70;99.90
30371;DHT22;17164;48.590;11.410;2023-05-07T02:07:30;10.70;99.90
30371;DHT22;17164;48.590;11.410;2023-05-07T02:09:56;10.70;99.90
30371;DHT22;17164;48.590;11.410;2023-05-07T02:12:22;10.60;99.90
30371;DHT22;17164;48.590;11.410;2023-05-07T02:14:48;10.60;99.90
30371;DHT22;17164;48.590;11.410;2023-05-07T02:17:13;10.60;99.90
30371;DHT22;17164;48.590;11.410;2023-05-07T02:19:39;10.60;99.90
30371;DHT22;17164;48.590;11.410;2023-05-07T02:22:05;10.50;99.90
30371;DHT22;17164;48.590;11.410;2023-05-07T02:24:30;10.50;99.90
30371;DHT22;17164;48.590;11.410;2023-05-07T02:26:56;10.50;99.90
30371;DHT22;17164;48.590;11.410;2023-05-07T02:29:21;10.40;99.90
30371;DHT22;17164;48.590;11.410;2023-05-07T02:31:47;10.40;99.90
30371;DHT22;17164;48.590;11.410;2023-05-07T02:34:16;10.40;99.90
30371;DHT22;17164;48.590;11.410;2023-05-07T02:36:42;10.40;99.90
30371;DHT22;17164;48.590;11.410;2023-05-07T02:39:08;10.40;99.90
30371;DHT22;17164;48.590;11.410;2023-05-07T02:41:33;10.30;99.90
30371;DHT22;17164;48.590;11.410;2023-05-07T02:43:59;10.30;99.90
30371;DHT22;17164;48.590;11.410;2023-05-07T02:46:25;10.30;99.90
30371;DHT22;17164;48.590;11.410;2023-05-07T02:48:50;10.30;99.90
30371;DHT22;17164;48.590;11.410;2023-05-07T02:51:19;10.30;99.90
30371;DHT22;17164;48.590;11.410;2023-05-07T02:53:45;10.20;99.90
30371;DHT22;17164;48.590;11.410;2023-05-07T02:56:11;10.20;99.90
30371;DHT22;17164;48.590;11.410;2023-05-07T02:58:37;10.20;99.90
30371;DHT22;17164;48.590;11.410;2023-05-07T03:01:05;10.30;99.90
30371;DHT22;17164;48.590;11.410;2023-05-07T03:03:31;10.20;99.90
30371;DHT22;17164;48.590;11.410;2023-05-07T03:05:56;10.20;99.90
30371;DHT22;17164;48.590;11.410;2023-05-07T03:08:22;10.20;99.90
30371;DHT22;17164;48.590;11.410;2023-05-07T03:10:48;10.20;99.90
30371;DHT22;17164;48.590;11.410;2023-05-07T03:13:13;10.20;99.90
30371;DHT22;17164;48.590;11.410;2023-05-07T03:15:39;10.20;99.90
30371;DHT22;17164;48.590;11.410;2023-05-07T03:18:05;10.10;99.90
30371;DHT22;17164;48.590;11.410;2023-05-07T03:20:31;10.10;99.90
30371;DHT22;17164;48.590;11.410;2023-05-07T03:22:56;10.10;99.90
30371;DHT22;17164;48.590;11.410;2023-05-07T03:25:22;10.10;99.90
30371;DHT22;17164;48.590;11.410;2023-05-07T03:27:48;10.10;99.90
30371;DHT22;17164;48.590;11.410;2023-05-07T03:30:13;10.10;99.90
30371;DHT22;17164;48.590;11.410;2023-05-07T03:32:39;10.10;99.90
30371;DHT22;17164;48.590;11.410;2023-05-07T03:35:05;10.10;99.90
30371;DHT22;17164;48.590;11.410;2023-05-07T03:37:30;10.10;99.90
30371;DHT22;17164;48.590;11.410;2023-05-07T03:39:56;10.00;99.90
30371;DHT22;17164;48.590;11.410;2023-05-07T03:42:22;10.00;99.90
30371;DHT22;17164;48.590;11.410;2023-05-07T03:44:48;9.90;99.90
30371;DHT22;17164;48.590;11.410;2023-05-07T03:47:13;9.90;99.90
30371;DHT22;17164;48.590;11.410;2023-05-07T03:49:39;9.80;99.90
30371;DHT22;17164;48.590;11.410;2023-05-07T03:52:05;9.80;99.90
30371;DHT22;17164;48.590;11.410;2023-05-07T03:54:31;9.80;99.90
30371;DHT22;17164;48.590;11.410;2023-05-07T03:56:56;9.70;99.90
30371;DHT22;17164;48.590;11.410;2023-05-07T03:59:22;9.70;99.90
30371;DHT22;17164;48.590;11.410;2023-05-07T04:01:48;9.70;99.90
30371;DHT22;17164;48.590;11.410;2023-05-07T04:04:17;9.70;99.90
30371;DHT22;17164;48.590;11.410;2023-05-07T04:06:42;9.70;99.90
30371;DHT22;17164;48.590;11.410;2023-05-07T04:09:08;9.70;99.90
30371;DHT22;17164;48.590;11.410;2023-05-07T04:11:35;9.70;99.90
30371;DHT22;17164;48.590;11.410;2023-05-07T04:14:00;9.70;99.90
30371;DHT22;17164;48.590;11.410;2023-05-07T04:16:26;9.70;99.90
30371;DHT22;17164;48.590;11.410;2023-05-07T04:18:51;9.70;99.90
30371;DHT22;17164;48.590;11.410;2023-05-07T04:21:18;9.70;99.90
30371;DHT22;17164;48.590;11.410;2023-05-07T04:23:45;9.60;99.90
30371;DHT22;17164;48.590;11.410;2023-05-07T04:26:11;9.70;99.90
30371;DHT22;17164;48.590;11.410;2023-05-07T04:28:37;9.70;99.90
30371;DHT22;17164;48.590;11.410;2023-05-07T04:31:03;9.70;99.90
30371;DHT22;17164;48.590;11.410;2023-05-07T04:33:29;9.70;99.90
30371;DHT22;17164;48.590;11.410;2023-05-07T04:35:54;9.70;99.90
30371;DHT22;17164;48.590;11.410;2023-05-07T04:38:20;9.70;99.90
30371;DHT22;17164;48.590;11.410;2023-05-07T04:40:45;9.80;99.90
30371;DHT22;17164;48.590;11.410;2023-05-07T04:43:12;9.80;99.90
30371;DHT22;17164;48.590;11.410;2023-05-07T04:45:38;9.90;99.90
30371;DHT22;17164;48.590;11.410;2023-05-07T04:48:07;10.00;99.90
30371;DHT22;17164;48.590;11.410;2023-05-07T04:50:33;10.00;99.90
30371;DHT22;17164;48.590;11.410;2023-05-07T04:52:58;10.00;99.90
30371;DHT22;17164;48.590;11.410;2023-05-07T04:55:24;10.10;99.90
30371;DHT22;17164;48.590;11.410;2023-05-07T04:57:49;10.10;99.90
30371;DHT22;17164;48.590;11.410;2023-05-07T05:00:15;10.20;99.90
30371;DHT22;17164;48.590;11.410;2023-05-07T05:02:41;10.20;99.90
30371;DHT22;17164;48.590;11.410;2023-05-07T05:05:07;10.20;99.90
30371;DHT22;17164;48.590;11.410;2023-05-07T05:07:33;10.30;99.90
30371;DHT22;17164;48.590;11.410;2023-05-07T05:09:59;10.30;99.90
30371;DHT22;17164;48.590;11.410;2023-05-07T05:12:24;10.40;99.90
30371;DHT22;17164;48.590;11.410;2023-05-07T05:14:50;10.50;99.90
30371;DHT22;17164;48.590;11.410;2023-05-07T05:17:16;10.50;99.90
30371;DHT22;17164;48.590;11.410;2023-05-07T05:19:42;10.60;99.90
30371;DHT22;17164;48.590;11.410;2023-05-07T05:22:07;10.70;99.90
30371;DHT22;17164;48.590;11.410;2023-05-07T05:24:33;10.70;99.90
30371;DHT22;17164;48.590;11.410;2023-05-07T05:26:58;10.70;99.90
30371;DHT22;17164;48.590;11.410;2023-05-07T05:29:27;10.70;99.90
30371;DHT22;17164;48.590;11.410;2023-05-07T05:31:53;10.80;99.90
30371;DHT22;17164;48.590;11.410;2023-05-07T05:34:18;10.90;99.90
30371;DHT22;17164;48.590;11.410;2023-05-07T05:36:45;10.90;99.90
30371;DHT22;17164;48.590;11.410;2023-05-07T05:39:11;11.00;99.90
30371;DHT22;17164;48.590;11.410;2023-05-07T05:41:36;11.10;99.90
30371;DHT22;17164;48.590;11.410;2023-05-07T05:44:02;11.20;99.90
30371;DHT22;17164;48.590;11.410;2023-05-07T05:46:27;11.20;99.90
30371;DHT22;17164;48.590;11.410;2023-05-07T05:48:53;11.30;99.90
30371;DHT22;17164;48.590;11.410;2023-05-07T05:51:20;11.40;99.90
30371;DHT22;17164;48.590;11.410;2023-05-07T05:53:45;11.50;99.90
30371;DHT22;17164;48.590;11.410;2023-05-07T05:56:11;11.60;99.90
30371;DHT22;17164;48.590;11.410;2023-05-07T05:58:37;11.70;99.90
30371;DHT22;17164;48.590;11.410;2023-05-07T06:01:02;11.80;99.90
30371;DHT22;17164;48.590;11.410;2023-05-07T06:03:28;11.90;99.90
30371;DHT22;17164;48.590;11.410;2023-05-07T06:05:54;12.00;99.90
30371;DHT22;17164;48.590;11.410;2023-05-07T06:08:19;12.10;99.90
30371;DHT22;17164;48.590;11.410;2023-05-07T06:10:45;12.10;99.90
30371;DHT22;17164;48.590;11.410;2023-05-07T06:13:11;12.10;99.90
30371;DHT22;17164;48.590;11.410;2023-05-07T06:15:36;12.10;99.90
30371;DHT22;17164;48.590;11.410;2023-05-07T06:18:02;12.10;99.90
30371;DHT22;17164;48.590;11.410;2023-05-07T06:20:28;12.10;99.90
30371;DHT22;17164;48.590;11.410;2023-05-07T06:22:53;12.10;99.90
30371;DHT22;17164;48.590;11.410;2023-05-07T06:25:19;12.20;99.90
30371;DHT22;17164;48.590;11.410;2023-05-07T06:27:45;12.30;99.90
30371;DHT22;17164;48.590;11.410;2023-05-07T06:30:11;12.40;99.90
30371;DHT22;17164;48.590;11.410;2023-05-07T06:32:37;12.50;99.90
30371;DHT22;17164;48.590;11.410;2023-05-07T06:35:02;12.60;99.90
30371;DHT22;17164;48.590;11.410;2023-05-07T06:37:28;12.80;99.90
30371;DHT22;17164;48.590;11.410;2023-05-07T06:39:53;12.90;99.90
30371;DHT22;17164;48.590;11.410;2023-05-07T06:42:19;13.00;99.90
30371;DHT22;17164;48.590;11.410;2023-05-07T06:44:45;13.10;99.90
30371;DHT22;17164;48.590;11.410;2023-05-07T06:47:10;13.30;99.90
30371;DHT22;17164;48.590;11.410;2023-05-07T06:49:36;13.40;99.90
30371;DHT22;17164;48.590;11.410;2023-05-07T06:52:02;13.50;99.90
30371;DHT22;17164;48.590;11.410;2023-05-07T06:54:29;13.70;99.90
30371;DHT22;17164;48.590;11.410;2023-05-07T06:56:54;13.80;99.90
30371;DHT22;17164;48.590;11.410;2023-05-07T06:59:20;14.00;99.90
30371;DHT22;17164;48.590;11.410;2023-05-07T07:01:45;14.10;99.90
30371;DHT22;17164;48.590;11.410;2023-05-07T07:04:11;14.30;99.90
30371;DHT22;17164;48.590;11.410;2023-05-07T07:06:37;14.40;99.90
30371;DHT22;17164;48.590;11.410;2023-05-07T07:09:02;14.50;99.90
30371;DHT22;17164;48.590;11.410;2023-05-07T07:11:28;14.50;99.90
30371;DHT22;17164;48.590;11.410;2023-05-07T07:13:53;14.60;99.90
30371;DHT22;17164;48.590;11.410;2023-05-07T07:16:21;14.70;99.90
30371;DHT22;17164;48.590;11.410;2023-05-07T07:18:46;14.70;99.90
30371;DHT22;17164;48.590;11.410;2023-05-07T07:21:12;14.80;99.90
30371;DHT22;17164;48.590;11.410;2023-05-07T07:23:37;14.90;99.90
30371;DHT22;17164;48.590;11.410;2023-05-07T07:26:03;15.00;99.90
30371;DHT22;17164;48.590;11.410;2023-05-07T07:28:29;15.10;99.90
30371;DHT22;17164;48.590;11.410;2023-05-07T07:30:54;15.20;99.90
30371;DHT22;17164;48.590;11.410;2023-05-07T07:33:20;15.40;99.90
30371;DHT22;17164;48.590;11.410;2023-05-07T07:35:45;15.50;99.90
30371;DHT22;17164;48.590;11.410;2023-05-07T07:38:11;15.70;99.90
30371;DHT22;17164;48.590;11.410;2023-05-07T07:40:37;15.80;99.90
30371;DHT22;17164;48.590;11.410;2023-05-07T07:43:02;15.90;99.90
30371;DHT22;17164;48.590;11.410;2023-05-07T07:45:28;16.00;99.90
30371;DHT22;17164;48.590;11.410;2023-05-07T07:47:54;16.10;99.90
30371;DHT22;17164;48.590;11.410;2023-05-07T07:50:20;16.30;99.90
30371;DHT22;17164;48.590;11.410;2023-05-07T07:52:46;16.50;99.90
30371;DHT22;17164;48.590;11.410;2023-05-07T07:55:12;16.60;99.90
30371;DHT22;17164;48.590;11.410;2023-05-07T07:57:37;16.80;99.90
30371;DHT22;17164;48.590;11.410;2023-05-07T08:00:03;16.90;99.90
30371;DHT22;17164;48.590;11.410;2023-05-07T08:02:29;17.10;99.90
30371;DHT22;17164;48.590;11.410;2023-05-07T08:04:55;17.20;99.90
30371;DHT22;17164;48.590;11.410;2023-05-07T08:07:21;17.40;99.90
30371;DHT22;17164;48.590;11.410;2023-05-07T08:09:48;17.40;99.90
30371;DHT22;17164;48.590;11.410;2023-05-07T08:12:14;17.60;99.90
30371;DHT22;17164;48.590;11.410;2023-05-07T08:14:39;17.70;99.90
30371;DHT22;17164;48.590;11.410;2023-05-07T08:17:05;17.80;99.90
30371;DHT22;17164;48.590;11.410;2023-05-07T08:19:32;18.00;99.90
30371;DHT22;17164;48.590;11.410;2023-05-07T08:21:57;18.10;99.90
30371;DHT22;17164;48.590;11.410;2023-05-07T08:24:23;18.30;99.90
30371;DHT22;17164;48.590;11.410;2023-05-07T08:26:48;18.40;99.90
30371;DHT22;17164;48.590;11.410;2023-05-07T08:29:15;18.50;99.90
30371;DHT22;17164;48.590;11.410;2023-05-07T08:31:40;18.70;99.90
30371;DHT22;17164;48.590;11.410;2023-05-07T08:34:06;18.90;99.90
30371;DHT22;17164;48.590;11.410;2023-05-07T08:36:32;19.10;99.90
30371;DHT22;17164;48.590;11.410;2023-05-07T08:38:58;19.30;99.90
30371;DHT22;17164;48.590;11.410;2023-05-07T08:41:24;19.60;99.90
30371;DHT22;17164;48.590;11.410;2023-05-07T08:43:50;19.80;99.90
30371;DHT22;17164;48.590;11.410;2023-05-07T08:46:21;19.90;99.90
30371;DHT22;17164;48.590;11.410;2023-05-07T08:48:50;20.00;99.90
30371;DHT22;17164;48.590;11.410;2023-05-07T08:51:18;20.20;99.90
30371;DHT22;17164;48.590;11.410;2023-05-07T08:53:45;20.40;99.90
30371;DHT22;17164;48.590;11.410;2023-05-07T08:56:11;20.50;99.90
30371;DHT22;17164;48.590;11.410;2023-05-07T08:58:37;20.60;99.90
30371;DHT22;17164;48.590;11.410;2023-05-07T09:01:13;20.70;99.90
30371;DHT22;17164;48.590;11.410;2023-05-07T09:03:39;20.90;99.90
30371;DHT22;17164;48.590;11.410;2023-05-07T09:06:05;21.10;99.90
30371;DHT22;17164;48.590;11.410;2023-05-07T09:08:33;21.20;99.90
30371;DHT22;17164;48.590;11.410;2023-05-07T09:10:59;21.40;99.90
30371;DHT22;17164;48.590;11.410;2023-05-07T09:13:25;21.60;99.90
30371;DHT22;17164;48.590;11.410;2023-05-07T09:15:51;21.70;99.90
30371;DHT22;17164;48.590;11.410;2023-05-07T09:18:16;21.90;99.90
30371;DHT22;17164;48.590;11.410;2023-05-07T09:20:42;22.00;99.90
30371;DHT22;17164;48.590;11.410;2023-05-07T09:23:08;22.20;99.90
30371;DHT22;17164;48.590;11.410;2023-05-07T09:25:35;22.40;99.90
30371;DHT22;17164;48.590;11.410;2023-05-07T09:28:02;22.60;99.90
30371;DHT22;17164;48.590;11.410;2023-05-07T09:30:31;22.80;99.90
30371;DHT22;17164;48.590;11.410;2023-05-07T09:33:02;22.90;99.90
30371;DHT22;17164;48.590;11.410;2023-05-07T09:35:28;22.80;99.90
30371;DHT22;17164;48.590;11.410;2023-05-07T09:37:55;22.80;99.90
30371;DHT22;17164;48.590;11.410;2023-05-07T09:40:29;22.70;99.90
30371;DHT22;17164;48.590;11.410;2023-05-07T09:42:55;22.60;99.90
30371;DHT22;17164;48.590;11.410;2023-05-07T09:45:28;22.20;99.90
30371;DHT22;17164;48.590;11.410;2023-05-07T09:47:55;22.20;99.90
30371;DHT22;17164;48.590;11.410;2023-05-07T09:50:29;22.40;99.90
30371;DHT22;17164;48.590;11.410;2023-05-07T09:52:56;22.60;99.90
30371;DHT22;17164;48.590;11.410;2023-05-07T09:55:22;22.80;99.90
30371;DHT22;17164;48.590;11.410;2023-05-07T09:57:52;22.90;99.90
30371;DHT22;17164;48.590;11.410;2023-05-07T10:00:21;22.80;97.90
30371;DHT22;17164;48.590;11.410;2023-05-07T10:02:51;22.60;99.90
30371;DHT22;17164;48.590;11.410;2023-05-07T10:05:21;22.30;99.90
30371;DHT22;17164;48.590;11.410;2023-05-07T10:07:47;21.80;99.90
30371;DHT22;17164;48.590;11.410;2023-05-07T10:10:14;21.60;99.90
30371;DHT22;17164;48.590;11.410;2023-05-07T10:12:41;21.50;99.90
30371;DHT22;17164;48.590;11.410;2023-05-07T10:15:08;21.40;99.90
30371;DHT22;17164;48.590;11.410;2023-05-07T10:17:40;21.60;99.90
30371;DHT22;17164;48.590;11.410;2023-05-07T10:20:06;22.00;99.90
30371;DHT22;17164;48.590;11.410;2023-05-07T10:22:38;22.40;99.90
30371;DHT22;17164;48.590;11.410;2023-05-07T10:25:06;22.80;99.90
30371;DHT22;17164;48.590;11.410;2023-05-07T10:27:35;23.30;99.90
30371;DHT22;17164;48.590;11.410;2023-05-07T10:32:48;24.10;98.60
30371;DHT22;17164;48.590;11.410;2023-05-07T10:35:29;24.40;96.50
30371;DHT22;17164;48.590;11.410;2023-05-07T10:37:56;24.70;95.30
30371;DHT22;17164;48.590;11.410;2023-05-07T10:40:22;24.90;91.80
30371;DHT22;17164;48.590;11.410;2023-05-07T10:42:57;25.10;91.40
30371;DHT22;17164;48.590;11.410;2023-05-07T10:45:25;25.40;86.60
30371;DHT22;17164;48.590;11.410;2023-05-07T10:50:36;25.70;80.80
30371;DHT22;17164;48.590;11.410;2023-05-07T10:58:46;25.90;77.90
30371;DHT22;17164;48.590;11.410;2023-05-07T11:01:12;25.60;78.10
30371;DHT22;17164;48.590;11.410;2023-05-07T11:04:14;25.50;76.70
30371;DHT22;17164;48.590;11.410;2023-05-07T11:06:40;25.50;76.70
30371;DHT22;17164;48.590;11.410;2023-05-07T11:09:06;25.50;75.60
30371;DHT22;17164;48.590;11.410;2023-05-07T11:11:48;25.50;77.70
30371;DHT22;17164;48.590;11.410;2023-05-07T11:17:08;25.00;75.30
30371;DHT22;17164;48.590;11.410;2023-05-07T11:19:49;24.70;77.20
30371;DHT22;17164;48.590;11.410;2023-05-07T11:24:56;24.10;77.60
30371;DHT22;17164;48.590;11.410;2023-05-07T11:27:26;24.10;78.10
30371;DHT22;17164;48.590;11.410;2023-05-07T11:29:52;24.20;82.10
30371;DHT22;17164;48.590;11.410;2023-05-07T11:32:46;24.50;83.30
30371;DHT22;17164;48.590;11.410;2023-05-07T11:35:12;24.80;80.90
30371;DHT22;17164;48.590;11.410;2023-05-07T11:37:39;25.20;80.50
30371;DHT22;17164;48.590;11.410;2023-05-07T11:40:06;25.40;79.40
30371;DHT22;17164;48.590;11.410;2023-05-07T11:42:35;25.50;77.00
30371;DHT22;17164;48.590;11.410;2023-05-07T11:45:02;25.40;79.20
30371;DHT22;17164;48.590;11.410;2023-05-07T11:47:30;25.30;75.30
30371;DHT22;17164;48.590;11.410;2023-05-07T11:49:56;25.30;75.20
30371;DHT22;17164;48.590;11.410;2023-05-07T11:52:23;25.20;72.40
30371;DHT22;17164;48.590;11.410;2023-05-07T11:54:53;25.30;74.40
30371;DHT22;17164;48.590;11.410;2023-05-07T11:57:20;25.40;73.10
30371;DHT22;17164;48.590;11.410;2023-05-07T11:59:46;25.50;76.10
30371;DHT22;17164;48.590;11.410;2023-05-07T12:02:15;25.60;73.50
30371;DHT22;17164;48.590;11.410;2023-05-07T12:04:41;25.50;72.90
30371;DHT22;17164;48.590;11.410;2023-05-07T12:07:16;25.20;71.00
30371;DHT22;17164;48.590;11.410;2023-05-07T12:09:43;24.90;73.80
30371;DHT22;17164;48.590;11.410;2023-05-07T12:12:09;24.70;74.10
30371;DHT22;17164;48.590;11.410;2023-05-07T12:14:41;24.60;73.80
30371;DHT22;17164;48.590;11.410;2023-05-07T12:17:08;24.50;76.50
30371;DHT22;17164;48.590;11.410;2023-05-07T12:19:38;24.50;75.20
30371;DHT22;17164;48.590;11.410;2023-05-07T12:22:04;24.60;74.80
30371;DHT22;17164;48.590;11.410;2023-05-07T12:24:56;24.60;73.90
30371;DHT22;17164;48.590;11.410;2023-05-07T12:27:22;24.70;72.90
30371;DHT22;17164;48.590;11.410;2023-05-07T12:29:48;24.80;71.50
30371;DHT22;17164;48.590;11.410;2023-05-07T12:32:19;24.90;72.70
30371;DHT22;17164;48.590;11.410;2023-05-07T12:34:45;24.80;70.90
30371;DHT22;17164;48.590;11.410;2023-05-07T12:37:11;24.80;73.10
30371;DHT22;17164;48.590;11.410;2023-05-07T12:39:38;24.80;74.60
30371;DHT22;17164;48.590;11.410;2023-05-07T12:42:04;24.80;74.90
30371;DHT22;17164;48.590;11.410;2023-05-07T12:44:35;24.80;73.40
30371;DHT22;17164;48.590;11.410;2023-05-07T12:47:02;24.80;73.30
30371;DHT22;17164;48.590;11.410;2023-05-07T12:49:27;24.70;74.90
30371;DHT22;17164;48.590;11.410;2023-05-07T12:51:53;24.70;75.00
30371;DHT22;17164;48.590;11.410;2023-05-07T12:54:31;24.80;75.20
30371;DHT22;17164;48.590;11.410;2023-05-07T12:57:19;24.90;73.20
30371;DHT22;17164;48.590;11.410;2023-05-07T12:59:45;25.00;73.30
30371;DHT22;17164;48.590;11.410;2023-05-07T13:02:11;25.10;74.20
30371;DHT22;17164;48.590;11.410;2023-05-07T13:04:37;25.20;74.20
30371;DHT22;17164;48.590;11.410;2023-05-07T13:07:03;25.20;73.60
30371;DHT22;17164;48.590;11.410;2023-05-07T13:09:29;25.00;72.30
30371;DHT22;17164;48.590;11.410;2023-05-07T13:11:54;25.00;75.40
30371;DHT22;17164;48.590;11.410;2023-05-07T13:14:20;24.90;73.00
30371;DHT22;17164;48.590;11.410;2023-05-07T13:16:47;24.80;73.00
30371;DHT22;17164;48.590;11.410;2023-05-07T13:19:12;24.50;77.10
30371;DHT22;17164;48.590;11.410;2023-05-07T13:21:38;24.30;75.30
30371;DHT22;17164;48.590;11.410;2023-05-07T13:24:04;24.20;75.90
30371;DHT22;17164;48.590;11.410;2023-05-07T13:26:31;24.10;75.30
30371;DHT22;17164;48.590;11.410;2023-05-07T13:28:56;24.00;75.80
30371;DHT22;17164;48.590;11.410;2023-05-07T13:31:22;24.10;76.20
30371;DHT22;17164;48.590;11.410;2023-05-07T13:33:48;24.20;75.70
30371;DHT22;17164;48.590;11.410;2023-05-07T13:36:14;24.30;76.80
30371;DHT22;17164;48.590;11.410;2023-05-07T13:38:40;24.30;76.00
30371;DHT22;17164;48.590;11.410;2023-05-07T13:41:05;24.40;75.50
30371;DHT22;17164;48.590;11.410;2023-05-07T13:43:31;24.50;73.00
30371;DHT22;17164;48.590;11.410;2023-05-07T13:45:59;24.60;73.70
30371;DHT22;17164;48.590;11.410;2023-05-07T13:48:25;24.60;73.80
30371;DHT22;17164;48.590;11.410;2023-05-07T13:50:50;24.60;73.80
30371;DHT22;17164;48.590;11.410;2023-05-07T13:53:17;24.60;72.20
30371;DHT22;17164;48.590;11.410;2023-05-07T13:55:44;24.40;73.60
30371;DHT22;17164;48.590;11.410;2023-05-07T13:58:09;24.40;74.40
30371;DHT22;17164;48.590;11.410;2023-05-07T14:00:35;24.40;76.20
30371;DHT22;17164;48.590;11.410;2023-05-07T14:03:01;24.30;73.60
30371;DHT22;17164;48.590;11.410;2023-05-07T14:05:27;24.30;74.20
30371;DHT22;17164;48.590;11.410;2023-05-07T14:07:57;24.10;75.20
30371;DHT22;17164;48.590;11.410;2023-05-07T14:10:23;24.00;73.80
30371;DHT22;17164;48.590;11.410;2023-05-07T14:12:48;23.90;75.40
30371;DHT22;17164;48.590;11.410;2023-05-07T14:15:14;23.80;75.90
30371;DHT22;17164;48.590;11.410;2023-05-07T14:17:40;23.70;76.90
30371;DHT22;17164;48.590;11.410;2023-05-07T14:20:06;23.70;76.70
30371;DHT22;17164;48.590;11.410;2023-05-07T14:22:32;23.80;78.00
30371;DHT22;17164;48.590;11.410;2023-05-07T14:24:57;23.80;78.40
30371;DHT22;17164;48.590;11.410;2023-05-07T14:27:23;23.90;77.60
30371;DHT22;17164;48.590;11.410;2023-05-07T14:29:49;24.00;77.20
30371;DHT22;17164;48.590;11.410;2023-05-07T14:32:17;24.10;76.90
30371;DHT22;17164;48.590;11.410;2023-05-07T14:34:43;24.20;74.30
30371;DHT22;17164;48.590;11.410;2023-05-07T14:37:09;24.20;73.50
30371;DHT22;17164;48.590;11.410;2023-05-07T14:39:35;24.10;73.20
30371;DHT22;17164;48.590;11.410;2023-05-07T14:42:01;24.10;72.70
30371;DHT22;17164;48.590;11.410;2023-05-07T14:44:28;24.10;72.80
30371;DHT22;17164;48.590;11.410;2023-05-07T14:46:54;24.20;74.10
30371;DHT22;17164;48.590;11.410;2023-05-07T14:49:19;24.10;76.00
30371;DHT22;17164;48.590;11.410;2023-05-07T14:51:46;23.90;75.60
30371;DHT22;17164;48.590;11.410;2023-05-07T14:54:13;23.80;76.30
30371;DHT22;17164;48.590;11.410;2023-05-07T14:56:39;23.70;78.20
30371;DHT22;17164;48.590;11.410;2023-05-07T14:59:05;23.60;78.20
30371;DHT22;17164;48.590;11.410;2023-05-07T15:01:30;23.60;80.10
30371;DHT22;17164;48.590;11.410;2023-05-07T15:03:56;23.50;80.60
30371;DHT22;17164;48.590;11.410;2023-05-07T15:06:22;23.50;80.10
30371;DHT22;17164;48.590;11.410;2023-05-07T15:08:47;23.40;80.60
30371;DHT22;17164;48.590;11.410;2023-05-07T15:11:16;23.30;81.00
30371;DHT22;17164;48.590;11.410;2023-05-07T15:13:44;23.30;80.90
30371;DHT22;17164;48.590;11.410;2023-05-07T15:16:10;23.30;81.50
30371;DHT22;17164;48.590;11.410;2023-05-07T15:18:35;23.30;80.70
30371;DHT22;17164;48.590;11.410;2023-05-07T15:21:01;23.30;80.50
30371;DHT22;17164;48.590;11.410;2023-05-07T15:23:27;23.20;82.00
30371;DHT22;17164;48.590;11.410;2023-05-07T15:25:53;23.20;81.10
30371;DHT22;17164;48.590;11.410;2023-05-07T15:28:19;23.20;81.00
30371;DHT22;17164;48.590;11.410;2023-05-07T15:30:44;23.10;80.30